Time;durP1;ratioP1;P1;durP2;ratioP2;P2;SDS_P1;SDS_P2;PMS_P1;PMS_P2;Temp;Humidity;BMP_temperature;BMP_pressure;BME280_temperature;BME280_humidity;BME280_pressure;Samples;Min_cycle;Max_cycle;Signal;HPM_P1;HPM_P2
2023/04/23 00:01:57;;;;;;;3.55;3.13;;;15.60;68.60;;;;;;5012274;28;20045;-64
2023/04/23 00:04:24;;;;;;;3.30;3.00;;;15.60;68.80;;;;;;5012507;28;20121;-63
2023/04/23 00:06:51;;;;;;;4.18;3.17;;;15.50;68.70;;;;;;5010351;28;20045;-63
2023/04/23 00:09:17;;;;;;;4.57;3.40;;;15.50;69.00;;;;;;5011683;28;20073;-64
2023/04/23 00:11:43;;;;;;;3.80;3.35;;;15.40;69.00;;;;;;5013080;28;20037;-64
2023/04/23 00:14:10;;;;;;;5.57;3.05;;;15.40;69.00;;;;;;5010039;28;20033;-63
2023/04/23 00:16:36;;;;;;;3.95;3.10;;;15.30;69.00;;;;;;5011536;28;20055;-64
2023/04/23 00:19:02;;;;;;;4.85;3.25;;;15.30;69.20;;;;;;5010368;28;20029;-63
2023/04/23 00:21:27;;;;;;;3.35;3.05;;;15.30;69.30;;;;;;5009932;28;20425;-63
2023/04/23 00:23:53;;;;;;;4.25;2.97;;;15.30;69.40;;;;;;5012473;28;20042;-64
2023/04/23 00:26:19;;;;;;;3.30;2.95;;;15.20;70.20;;;;;;5010059;28;20100;-63
2023/04/23 00:28:45;;;;;;;6.13;3.38;;;15.20;69.50;;;;;;5013891;28;20135;-64
2023/04/23 00:31:10;;;;;;;4.00;3.17;;;15.20;69.50;;;;;;5011182;28;20557;-64
2023/04/23 00:33:37;;;;;;;4.97;2.95;;;15.20;69.60;;;;;;5010454;28;20615;-63
2023/04/23 00:36:03;;;;;;;3.85;2.97;;;15.30;69.70;;;;;;5013048;28;20392;-64
2023/04/23 00:38:28;;;;;;;5.28;3.30;;;15.30;69.80;;;;;;5012869;28;20038;-64
2023/04/23 00:40:54;;;;;;;3.05;2.83;;;15.20;69.90;;;;;;5012638;28;20410;-64
2023/04/23 00:43:20;;;;;;;3.47;3.17;;;15.30;69.90;;;;;;5014891;28;20238;-64
2023/04/23 00:45:46;;;;;;;3.90;2.97;;;15.20;70.00;;;;;;5010063;28;20042;-64
2023/04/23 00:48:12;;;;;;;3.35;2.75;;;15.20;70.10;;;;;;5017473;28;20080;-63
2023/04/23 00:50:37;;;;;;;5.07;2.53;;;15.20;70.10;;;;;;5014673;28;20523;-64
2023/04/23 00:53:03;;;;;;;3.20;2.90;;;15.10;70.10;;;;;;5005106;28;20503;-64
2023/04/23 00:55:29;;;;;;;4.57;2.88;;;15.10;70.20;;;;;;4991634;28;20038;-63
2023/04/23 00:57:55;;;;;;;5.80;2.92;;;15.10;70.20;;;;;;4993501;28;20402;-64
2023/04/23 01:00:21;;;;;;;5.82;3.17;;;15.10;70.20;;;;;;4993228;28;20202;-63
2023/04/23 01:02:48;;;;;;;4.03;2.88;;;15.00;70.20;;;;;;4994874;28;20045;-64
2023/04/23 01:05:16;;;;;;;4.00;3.28;;;15.00;70.30;;;;;;4992700;28;20590;-63
2023/04/23 01:07:44;;;;;;;6.20;4.20;;;15.00;70.40;;;;;;4991883;28;20034;-63
2023/04/23 01:10:11;;;;;;;7.82;5.03;;;15.00;70.60;;;;;;4994340;28;20073;-63
2023/04/23 01:12:36;;;;;;;6.22;4.57;;;15.00;70.70;;;;;;4996780;28;20146;-62
2023/04/23 01:15:04;;;;;;;6.65;4.28;;;15.00;70.90;;;;;;4995470;28;20034;-64
2023/04/23 01:17:31;;;;;;;6.07;3.72;;;15.00;70.80;;;;;;4994503;28;20066;-63
2023/04/23 01:19:56;;;;;;;8.05;5.40;;;15.00;70.70;;;;;;4994126;28;20701;-64
2023/04/23 01:22:23;;;;;;;5.47;3.78;;;14.90;70.90;;;;;;4994547;28;20045;-62
2023/04/23 01:24:49;;;;;;;4.15;3.33;;;14.90;70.80;;;;;;4993659;28;20050;-63
2023/04/23 01:27:15;;;;;;;4.72;3.40;;;14.90;70.80;;;;;;4994818;28;20041;-64
2023/04/23 01:29:41;;;;;;;4.35;3.35;;;14.90;70.90;;;;;;4996593;28;20061;-63
2023/04/23 01:32:07;;;;;;;5.50;3.60;;;14.90;71.10;;;;;;4992317;28;20521;-63
2023/04/23 01:34:34;;;;;;;5.30;3.20;;;14.80;71.10;;;;;;4993010;28;20413;-64
2023/04/23 01:37:00;;;;;;;3.25;2.88;;;14.80;71.40;;;;;;4993332;28;20136;-63
2023/04/23 01:39:26;;;;;;;3.00;2.70;;;14.80;71.30;;;;;;4993824;28;20088;-64
2023/04/23 01:41:52;;;;;;;4.53;2.80;;;14.80;71.30;;;;;;4995000;28;20041;-64
2023/04/23 01:44:18;;;;;;;3.65;3.13;;;14.90;71.40;;;;;;4995151;28;20034;-63
2023/04/23 01:46:44;;;;;;;3.60;3.30;;;14.90;71.60;;;;;;4993779;28;20045;-63
2023/04/23 01:49:10;;;;;;;6.07;3.15;;;14.90;71.60;;;;;;4991516;28;20048;-63
2023/04/23 01:51:36;;;;;;;3.70;3.17;;;14.90;71.60;;;;;;4995540;28;20041;-63
2023/04/23 01:54:02;;;;;;;5.75;3.20;;;14.90;71.70;;;;;;4992582;28;20038;-63
2023/04/23 01:56:29;;;;;;;3.38;3.08;;;14.90;71.80;;;;;;4993845;28;20065;-64
2023/04/23 01:58:55;;;;;;;5.05;2.97;;;14.90;71.80;;;;;;4994582;28;20126;-63
2023/04/23 02:01:20;;;;;;;2.60;2.30;;;14.90;72.00;;;;;;4995304;28;20122;-64
2023/04/23 02:03:49;;;;;;;4.28;2.53;;;14.90;72.00;;;;;;4991023;28;20416;-63
2023/04/23 02:06:14;;;;;;;4.53;2.58;;;15.00;72.10;;;;;;4992234;28;20387;-63
2023/04/23 02:08:40;;;;;;;4.53;2.67;;;15.00;71.80;;;;;;4993386;28;20034;-64
2023/04/23 02:11:05;;;;;;;3.80;2.78;;;15.00;71.90;;;;;;4993456;28;20038;-63
2023/04/23 02:13:31;;;;;;;3.58;2.78;;;15.00;72.00;;;;;;4994534;28;20088;-64
2023/04/23 02:15:57;;;;;;;2.80;2.60;;;14.90;72.30;;;;;;4991416;28;20386;-64
2023/04/23 02:18:23;;;;;;;2.72;2.53;;;14.90;72.50;;;;;;4996057;28;20095;-64
2023/04/23 02:20:49;;;;;;;3.03;2.63;;;14.90;73.00;;;;;;4997103;28;20045;-64
2023/04/23 02:23:14;;;;;;;3.70;2.95;;;14.90;73.00;;;;;;4996393;28;20034;-64
2023/04/23 02:25:41;;;;;;;2.97;2.45;;;14.90;73.10;;;;;;4996493;28;20165;-64
2023/04/23 02:28:07;;;;;;;2.83;2.22;;;14.90;73.30;;;;;;4996541;28;20512;-62
2023/04/23 02:30:34;;;;;;;3.35;2.60;;;14.90;73.30;;;;;;4995116;28;20034;-63
2023/04/23 02:33:00;;;;;;;2.90;2.60;;;14.90;73.50;;;;;;4991754;28;20034;-64
2023/04/23 02:35:25;;;;;;;3.20;2.50;;;14.90;73.50;;;;;;4992609;28;20390;-63
2023/04/23 02:37:53;;;;;;;2.97;2.60;;;14.80;73.70;;;;;;4992572;28;20030;-64
2023/04/23 02:40:19;;;;;;;4.00;2.45;;;14.80;73.90;;;;;;4994096;28;20044;-63
2023/04/23 02:42:44;;;;;;;4.53;2.60;;;14.80;74.00;;;;;;4994224;28;20041;-64
2023/04/23 02:45:10;;;;;;;3.65;2.65;;;14.70;74.10;;;;;;4992610;28;20140;-64
2023/04/23 02:47:36;;;;;;;3.05;2.75;;;14.80;74.40;;;;;;4997594;28;20037;-63
2023/04/23 02:50:04;;;;;;;4.32;2.85;;;14.70;74.60;;;;;;4994421;28;20030;-63
2023/04/23 02:52:30;;;;;;;3.65;2.92;;;14.70;74.90;;;;;;4992979;28;20611;-63
2023/04/23 02:54:55;;;;;;;3.65;2.80;;;14.70;75.10;;;;;;4989974;28;20038;-63
2023/04/23 02:57:21;;;;;;;3.60;3.08;;;14.60;75.20;;;;;;4991645;28;20027;-63
2023/04/23 02:59:47;;;;;;;5.35;3.20;;;14.60;75.30;;;;;;4990972;28;20053;-64
2023/04/23 03:02:13;;;;;;;4.13;2.97;;;14.60;75.60;;;;;;4992361;28;20402;-63
2023/04/23 03:04:38;;;;;;;3.38;3.08;;;14.60;75.80;;;;;;4994095;28;20143;-63
2023/04/23 03:07:04;;;;;;;5.28;3.22;;;14.50;75.80;;;;;;4993496;28;20084;-63
2023/04/23 03:09:29;;;;;;;5.28;3.15;;;14.50;76.00;;;;;;4992321;28;20589;-63
2023/04/23 03:11:56;;;;;;;4.55;3.30;;;14.40;76.30;;;;;;4993542;28;20430;-64
2023/04/23 03:14:22;;;;;;;3.60;3.30;;;14.40;76.50;;;;;;4991141;28;20038;-64
2023/04/23 03:16:47;;;;;;;5.97;3.50;;;14.30;76.60;;;;;;4991356;28;20465;-64
2023/04/23 03:19:14;;;;;;;5.57;3.30;;;14.40;76.80;;;;;;4992689;28;20041;-64
2023/04/23 03:21:39;;;;;;;4.00;3.30;;;14.30;77.10;;;;;;4992301;28;20034;-64
2023/04/23 03:24:05;;;;;;;4.63;3.47;;;14.30;77.20;;;;;;4989369;28;20403;-63
2023/04/23 03:26:31;;;;;;;4.97;3.50;;;14.30;77.30;;;;;;4990288;28;21238;-64
2023/04/23 03:28:56;;;;;;;3.47;3.00;;;14.30;77.50;;;;;;4987962;28;20038;-64
2023/04/23 03:31:22;;;;;;;4.57;3.22;;;14.30;77.60;;;;;;4997442;28;20041;-64
2023/04/23 03:33:47;;;;;;;3.92;3.53;;;14.20;77.70;;;;;;5009939;28;20085;-64
2023/04/23 03:36:14;;;;;;;4.88;3.80;;;14.20;77.90;;;;;;5009382;28;20060;-64
2023/04/23 03:38:40;;;;;;;5.13;3.70;;;14.20;78.00;;;;;;5010861;28;20480;-64
2023/04/23 03:41:05;;;;;;;5.43;3.50;;;14.20;78.30;;;;;;5010803;28;20041;-64
2023/04/23 03:43:31;;;;;;;5.18;3.00;;;14.10;78.40;;;;;;5002167;28;20047;-64
2023/04/23 03:45:56;;;;;;;3.95;3.40;;;14.20;78.60;;;;;;4989694;28;20042;-64
2023/04/23 03:48:22;;;;;;;4.82;3.30;;;14.10;78.70;;;;;;4994736;28;20046;-64
2023/04/23 03:50:48;;;;;;;3.75;3.42;;;14.10;78.60;;;;;;4989182;28;20413;-65
2023/04/23 03:53:16;;;;;;;5.22;3.25;;;14.10;78.70;;;;;;4989919;28;20530;-64
2023/04/23 03:55:42;;;;;;;4.57;3.55;;;14.10;78.80;;;;;;4990735;28;20113;-64
2023/04/23 03:58:08;;;;;;;3.65;3.13;;;14.10;79.10;;;;;;4993412;28;20030;-64
2023/04/23 04:00:33;;;;;;;4.03;3.22;;;14.10;79.20;;;;;;4989493;28;20042;-64
2023/04/23 04:03:00;;;;;;;4.63;3.15;;;14.00;79.20;;;;;;4992472;28;20037;-64
2023/04/23 04:05:26;;;;;;;3.78;2.88;;;14.00;79.30;;;;;;4992759;28;20553;-64
2023/04/23 04:07:53;;;;;;;5.22;3.10;;;14.10;79.30;;;;;;4992844;28;20177;-64
2023/04/23 04:10:18;;;;;;;5.97;3.20;;;14.10;79.40;;;;;;4993693;28;20037;-64
2023/04/23 04:12:46;;;;;;;4.05;3.00;;;14.00;79.40;;;;;;4992449;28;20038;-64
2023/04/23 04:15:12;;;;;;;3.30;2.75;;;14.10;79.60;;;;;;4991475;28;20041;-64
2023/04/23 04:17:38;;;;;;;4.20;3.08;;;14.00;79.50;;;;;;4989509;28;20125;-64
2023/04/23 04:20:06;;;;;;;4.25;3.03;;;14.00;79.80;;;;;;4993689;28;20405;-64
2023/04/23 04:22:32;;;;;;;4.07;2.72;;;14.00;79.90;;;;;;4993230;28;20037;-65
2023/04/23 04:24:58;;;;;;;4.30;3.30;;;14.00;79.90;;;;;;4988926;28;20046;-64
2023/04/23 04:27:24;;;;;;;5.10;3.90;;;13.90;80.00;;;;;;4992730;28;20414;-64
2023/04/23 04:29:50;;;;;;;4.60;3.53;;;13.90;80.20;;;;;;4991002;28;20042;-64
2023/04/23 04:32:16;;;;;;;3.83;3.53;;;13.90;80.40;;;;;;4990306;28;20493;-64
2023/04/23 04:34:42;;;;;;;5.18;4.00;;;13.90;80.50;;;;;;4990356;28;20049;-64
2023/04/23 04:37:09;;;;;;;4.20;3.80;;;13.80;80.60;;;;;;4993420;28;20140;-64
2023/04/23 04:39:35;;;;;;;6.30;4.20;;;13.80;80.90;;;;;;4988854;28;20076;-64
2023/04/23 04:42:02;;;;;;;4.80;4.30;;;13.70;81.10;;;;;;4990100;28;20124;-64
2023/04/23 04:44:29;;;;;;;6.78;5.20;;;13.70;81.20;;;;;;4995322;28;20413;-63
2023/04/23 04:46:55;;;;;;;5.63;4.35;;;13.70;81.30;;;;;;4993669;28;20058;-63
2023/04/23 04:49:21;;;;;;;4.82;4.28;;;13.70;81.70;;;;;;4997275;28;20030;-64
2023/04/23 04:51:46;;;;;;;5.28;4.72;;;13.60;81.70;;;;;;4994506;28;20045;-64
2023/04/23 04:54:12;;;;;;;6.15;4.90;;;13.60;81.90;;;;;;4994733;28;20037;-63
2023/04/23 04:56:38;;;;;;;5.68;4.80;;;13.60;82.00;;;;;;4996581;28;20030;-63
2023/04/23 04:59:04;;;;;;;6.22;5.32;;;13.50;82.20;;;;;;4994245;28;20030;-63
2023/04/23 05:01:30;;;;;;;6.13;4.55;;;13.50;82.50;;;;;;4995690;28;20038;-63
2023/04/23 05:03:56;;;;;;;5.70;5.18;;;13.40;82.50;;;;;;4992831;28;20093;-63
2023/04/23 05:06:22;;;;;;;5.32;4.82;;;13.40;82.60;;;;;;4996878;28;20134;-64
2023/04/23 05:08:47;;;;;;;6.15;5.13;;;13.40;82.80;;;;;;4996142;28;20117;-64
2023/04/23 05:11:15;;;;;;;7.40;4.90;;;13.40;82.80;;;;;;4990964;28;20030;-63
2023/04/23 05:13:40;;;;;;;7.40;5.43;;;13.30;83.00;;;;;;4994399;28;20370;-64
2023/04/23 05:16:07;;;;;;;7.03;5.28;;;13.30;83.30;;;;;;4994198;28;20045;-63
2023/04/23 05:18:32;;;;;;;5.88;5.38;;;13.30;83.60;;;;;;4996787;28;20202;-64
2023/04/23 05:20:58;;;;;;;6.05;4.82;;;13.30;83.80;;;;;;4994779;28;20567;-64
2023/04/23 05:23:23;;;;;;;5.28;4.70;;;13.30;83.80;;;;;;4994388;28;20058;-64
2023/04/23 05:25:52;;;;;;;7.88;5.10;;;13.30;83.80;;;;;;4996696;28;20141;-64
2023/04/23 05:28:17;;;;;;;6.70;5.43;;;13.30;84.00;;;;;;4997799;28;20027;-64
2023/04/23 05:30:43;;;;;;;5.43;4.78;;;13.40;84.00;;;;;;4995950;28;20501;-64
2023/04/23 05:33:08;;;;;;;7.25;5.20;;;13.40;84.00;;;;;;4995910;28;20033;-64
2023/04/23 05:35:34;;;;;;;6.85;5.25;;;13.40;84.10;;;;;;4997407;28;20540;-64
2023/04/23 05:38:01;;;;;;;6.63;5.18;;;13.40;84.00;;;;;;4995436;28;20026;-64
2023/04/23 05:40:27;;;;;;;7.00;5.22;;;13.40;84.00;;;;;;4995005;28;20061;-64
2023/04/23 05:42:52;;;;;;;5.72;5.18;;;13.40;84.10;;;;;;4997939;28;20116;-63
2023/04/23 05:45:18;;;;;;;6.43;5.22;;;13.40;84.20;;;;;;4990737;28;20030;-63
2023/04/23 05:47:43;;;;;;;6.05;5.32;;;13.50;84.30;;;;;;4995207;28;20121;-64
2023/04/23 05:50:10;;;;;;;6.05;5.40;;;13.50;84.20;;;;;;4995917;28;20073;-63
2023/04/23 05:52:36;;;;;;;6.80;5.40;;;13.50;84.40;;;;;;4994159;28;20038;-63
2023/04/23 05:55:02;;;;;;;6.20;5.60;;;13.50;84.50;;;;;;4995805;28;20104;-63
2023/04/23 05:57:27;;;;;;;6.22;5.50;;;13.50;84.60;;;;;;4994336;28;20105;-63
2023/04/23 05:59:53;;;;;;;7.47;5.78;;;13.50;84.70;;;;;;4995000;28;20552;-64
2023/04/23 06:02:19;;;;;;;6.07;5.35;;;13.50;85.50;;;;;;4999194;28;20069;-63
2023/04/23 06:04:44;;;;;;;6.43;5.65;;;13.50;84.80;;;;;;4996134;28;20084;-64
2023/04/23 06:07:11;;;;;;;6.00;5.40;;;13.60;84.80;;;;;;4997024;28;20431;-64
2023/04/23 06:09:36;;;;;;;6.13;5.22;;;13.60;84.80;;;;;;4996809;28;20034;-64
2023/04/23 06:12:02;;;;;;;6.63;5.57;;;13.60;84.70;;;;;;5001776;28;20448;-64
2023/04/23 06:14:28;;;;;;;5.82;5.30;;;13.60;84.50;;;;;;4997510;28;20026;-63
2023/04/23 06:16:54;;;;;;;5.88;5.22;;;13.70;84.50;;;;;;4997074;28;20143;-64
2023/04/23 06:19:19;;;;;;;5.57;4.93;;;13.70;84.50;;;;;;4996258;28;20041;-64
2023/04/23 06:21:45;;;;;;;6.60;4.88;;;13.70;84.50;;;;;;4995814;28;20034;-64
2023/04/23 06:24:11;;;;;;;5.70;5.13;;;13.70;84.50;;;;;;4987356;28;20161;-64
2023/04/23 06:26:36;;;;;;;5.40;4.70;;;13.70;84.50;;;;;;4987233;28;20548;-65
2023/04/23 06:29:02;;;;;;;5.35;4.85;;;13.70;84.50;;;;;;4992998;28;20489;-64
2023/04/23 06:31:28;;;;;;;5.63;5.00;;;13.70;84.50;;;;;;4992455;28;20048;-64
2023/04/23 06:33:53;;;;;;;6.20;4.90;;;13.70;84.50;;;;;;4989918;28;20411;-64
2023/04/23 06:36:19;;;;;;;5.25;4.75;;;13.70;84.50;;;;;;4989619;28;20140;-64
2023/04/23 06:38:44;;;;;;;6.60;5.18;;;13.70;84.50;;;;;;4987822;28;20038;-64
2023/04/23 06:41:11;;;;;;;5.97;5.38;;;13.80;84.50;;;;;;4988364;28;20443;-64
2023/04/23 06:43:37;;;;;;;6.53;5.45;;;13.70;85.40;;;;;;4994612;28;20114;-64
2023/04/23 06:46:03;;;;;;;5.53;4.95;;;13.70;84.60;;;;;;4992380;28;20026;-64
2023/04/23 06:48:31;;;;;;;6.10;5.50;;;13.70;84.70;;;;;;4988325;28;20555;-64
2023/04/23 06:50:57;;;;;;;5.40;4.90;;;13.70;84.80;;;;;;4993550;28;20100;-64
2023/04/23 06:53:22;;;;;;;6.38;5.38;;;13.70;84.80;;;;;;4990592;28;20713;-64
2023/04/23 06:55:49;;;;;;;8.02;5.18;;;13.70;84.80;;;;;;4993498;28;20517;-63
2023/04/23 06:58:14;;;;;;;5.22;4.75;;;13.70;84.90;;;;;;4994876;28;20120;-64
2023/04/23 07:00:40;;;;;;;5.10;4.60;;;13.70;84.80;;;;;;4991515;28;20029;-64
2023/04/23 07:03:06;;;;;;;6.57;4.80;;;13.70;84.70;;;;;;4988188;28;20042;-64
2023/04/23 07:05:32;;;;;;;5.18;4.35;;;13.70;84.80;;;;;;4992914;28;20466;-64
2023/04/23 07:07:57;;;;;;;5.53;4.82;;;13.70;85.00;;;;;;4994759;28;20034;-64
2023/04/23 07:10:24;;;;;;;4.60;4.07;;;13.70;85.00;;;;;;4993321;28;20046;-64
2023/04/23 07:12:49;;;;;;;4.40;4.00;;;13.70;84.80;;;;;;4992486;28;20117;-64
2023/04/23 07:15:15;;;;;;;4.90;4.35;;;13.80;85.00;;;;;;4990782;28;20039;-64
2023/04/23 07:17:40;;;;;;;4.25;3.85;;;13.80;85.00;;;;;;4995775;28;20080;-63
2023/04/23 07:20:07;;;;;;;4.43;4.03;;;13.70;84.90;;;;;;4994110;28;20033;-63
2023/04/23 07:22:33;;;;;;;4.53;3.70;;;13.70;84.80;;;;;;4991541;28;20037;-65
2023/04/23 07:24:59;;;;;;;3.80;3.50;;;13.70;85.00;;;;;;4993561;28;20030;-64
2023/04/23 07:27:25;;;;;;;3.80;3.50;;;13.70;84.90;;;;;;4996793;28;20046;-63
2023/04/23 07:29:51;;;;;;;5.65;2.90;;;13.80;85.90;;;;;;4992082;28;20041;-64
2023/04/23 07:32:16;;;;;;;3.80;3.50;;;13.80;85.10;;;;;;4992062;28;20069;-64
2023/04/23 07:34:42;;;;;;;3.75;3.40;;;13.80;85.20;;;;;;5000517;28;20026;-63
2023/04/23 07:37:07;;;;;;;3.67;3.30;;;13.80;85.10;;;;;;5001251;28;20032;-64
2023/04/23 07:39:33;;;;;;;3.10;2.90;;;13.80;85.20;;;;;;5010422;28;20034;-64
2023/04/23 07:42:00;;;;;;;4.45;2.83;;;13.90;85.40;;;;;;5014300;28;20515;-64
2023/04/23 07:44:26;;;;;;;2.55;2.35;;;13.90;85.40;;;;;;5012654;28;20768;-64
2023/04/23 07:46:52;;;;;;;3.13;2.85;;;13.90;85.00;;;;;;5013629;28;20101;-64
2023/04/23 07:49:17;;;;;;;2.70;2.50;;;14.00;85.20;;;;;;5013962;28;20175;-64
2023/04/23 07:51:43;;;;;;;2.13;1.98;;;14.10;85.20;;;;;;5014940;28;20489;-64
2023/04/23 07:54:09;;;;;;;2.97;1.90;;;14.10;84.80;;;;;;5015204;28;20100;-62
2023/04/23 07:56:35;;;;;;;2.08;1.83;;;14.20;84.60;;;;;;5012425;28;20076;-63
2023/04/23 07:59:01;;;;;;;2.42;2.22;;;14.20;84.30;;;;;;5015510;28;20042;-65
2023/04/23 08:01:27;;;;;;;2.50;2.30;;;14.30;84.00;;;;;;5011408;28;20034;-64
2023/04/23 08:03:54;;;;;;;2.75;1.90;;;14.40;84.00;;;;;;5012583;28;20037;-64
2023/04/23 08:06:21;;;;;;;2.38;2.17;;;14.40;83.80;;;;;;5010788;28;20087;-63
2023/04/23 08:08:46;;;;;;;1.98;1.80;;;14.50;83.40;;;;;;5011350;28;20109;-64
2023/04/23 08:11:12;;;;;;;1.70;1.60;;;14.50;83.00;;;;;;5014524;28;20029;-63
2023/04/23 08:13:37;;;;;;;1.75;1.65;;;14.50;82.60;;;;;;5015225;28;20044;-63
2023/04/23 08:16:03;;;;;;;3.05;1.85;;;14.50;82.80;;;;;;5012634;28;20073;-62
2023/04/23 08:18:29;;;;;;;2.45;2.13;;;14.50;82.90;;;;;;5011149;28;20758;-63
2023/04/23 08:20:58;;;;;;;1.85;1.73;;;14.50;82.70;;;;;;5010280;28;20048;-63
2023/04/23 08:23:24;;;;;;;2.45;2.10;;;14.60;82.60;;;;;;5005103;28;20022;-65
2023/04/23 08:25:49;;;;;;;2.20;1.77;;;14.60;82.30;;;;;;4998175;28;20038;-63
2023/04/23 08:28:15;;;;;;;3.10;1.95;;;14.70;82.10;;;;;;4993729;28;20031;-63
2023/04/23 08:30:40;;;;;;;2.13;1.92;;;14.70;81.90;;;;;;4995854;28;20077;-63
2023/04/23 08:33:06;;;;;;;2.13;1.92;;;14.70;81.50;;;;;;4996922;28;20568;-64
2023/04/23 08:35:32;;;;;;;2.88;1.98;;;14.70;81.20;;;;;;4999600;28;20042;-63
2023/04/23 08:37:57;;;;;;;1.70;1.60;;;14.70;80.90;;;;;;4990323;28;20417;-64
2023/04/23 08:40:24;;;;;;;1.70;1.60;;;14.70;80.70;;;;;;4995873;28;20035;-63
2023/04/23 08:43:00;;;;;;;1.77;1.67;;;14.80;80.70;;;;;;4996075;28;20169;-63
2023/04/23 08:45:27;;;;;;;3.28;2.05;;;14.80;80.60;;;;;;4994278;28;20038;-63
2023/04/23 08:47:58;;;;;;;4.65;1.88;;;14.80;80.70;;;;;;4996682;28;20045;-64
2023/04/23 08:50:24;;;;;;;2.00;1.90;;;14.80;80.80;;;;;;4989099;28;20038;-63
2023/04/23 08:52:52;;;;;;;1.80;1.70;;;14.80;80.80;;;;;;4996380;28;20034;-63
2023/04/23 08:55:19;;;;;;;1.63;1.52;;;14.80;80.70;;;;;;4995514;28;20026;-63
2023/04/23 08:57:45;;;;;;;1.70;1.60;;;14.80;80.90;;;;;;4992373;28;20061;-65
2023/04/23 09:00:14;;;;;;;1.92;1.83;;;14.80;81.00;;;;;;4990138;28;20041;-63
2023/04/23 09:02:44;;;;;;;3.15;1.83;;;14.90;81.10;;;;;;4987657;28;21646;-63
2023/04/23 09:05:10;;;;;;;2.25;1.90;;;14.90;81.00;;;;;;4993441;28;20076;-64
2023/04/23 09:07:36;;;;;;;2.63;1.70;;;14.90;81.00;;;;;;4995869;28;20038;-64
2023/04/23 09:10:04;;;;;;;2.25;1.80;;;15.00;81.20;;;;;;4990963;28;20038;-63
2023/04/23 09:12:30;;;;;;;4.35;3.85;;;15.00;81.00;;;;;;4996358;28;20784;-63
2023/04/23 09:14:57;;;;;;;5.10;4.10;;;15.00;80.60;;;;;;4989265;28;20383;-63
2023/04/23 09:17:28;;;;;;;2.47;1.92;;;15.10;80.30;;;;;;4988677;28;20506;-63
2023/04/23 09:19:54;;;;;;;1.75;1.20;;;15.10;79.70;;;;;;4991260;28;20173;-62
2023/04/23 09:22:38;;;;;;;1.27;1.17;;;15.20;79.50;;;;;;4988922;28;20031;-62
2023/04/23 09:25:06;;;;;;;1.20;1.10;;;15.20;79.60;;;;;;4987426;28;20050;-62
2023/04/23 09:27:32;;;;;;;1.30;1.20;;;15.20;79.50;;;;;;4980056;28;20143;-64
2023/04/23 09:30:03;;;;;;;1.27;0.90;;;15.20;79.60;;;;;;4995066;28;20038;-62
2023/04/23 09:32:33;;;;;;;3.38;1.50;;;15.30;80.00;;;;;;4992992;28;20027;-61
2023/04/23 09:35:02;;;;;;;1.45;1.15;;;15.40;79.80;;;;;;4997786;28;20038;-62
2023/04/23 09:37:28;;;;;;;2.28;1.38;;;15.40;80.00;;;;;;4997582;28;20441;-62
2023/04/23 09:39:57;;;;;;;2.75;2.55;;;15.50;80.10;;;;;;4997485;28;20030;-62
2023/04/23 09:42:23;;;;;;;1.77;1.13;;;15.60;80.20;;;;;;4994821;28;20041;-64
2023/04/23 09:45:10;;;;;;;1.40;1.20;;;15.70;80.00;;;;;;4996481;28;20072;-65
2023/04/23 09:47:51;;;;;;;0.90;0.90;;;15.80;79.70;;;;;;4996525;28;20045;-65
2023/04/23 09:50:18;;;;;;;1.02;0.98;;;15.90;79.40;;;;;;4992177;28;20038;-64
2023/04/23 09:52:43;;;;;;;0.60;0.60;;;16.00;79.10;;;;;;4996834;28;20038;-62
2023/04/23 09:55:09;;;;;;;0.90;0.80;;;16.10;78.80;;;;;;4997192;28;20030;-63
2023/04/23 09:57:36;;;;;;;1.20;1.10;;;16.30;78.00;;;;;;4994859;28;20042;-64
2023/04/23 10:00:13;;;;;;;0.82;0.82;;;16.40;77.60;;;;;;4997617;28;20185;-62
2023/04/23 10:02:44;;;;;;;0.60;0.50;;;16.50;75.20;;;;;;4995972;28;20061;-65
2023/04/23 10:05:21;;;;;;;0.52;0.50;;;16.50;75.60;;;;;;4994194;28;20042;-65
2023/04/23 10:07:50;;;;;;;0.80;0.43;;;16.60;72.80;;;;;;4992329;28;20034;-62
2023/04/23 10:10:18;;;;;;;0.55;0.40;;;16.60;73.50;;;;;;4997357;28;20034;-65
2023/04/23 10:12:44;;;;;;;0.60;0.60;;;16.70;73.90;;;;;;4994596;28;20030;-64
2023/04/23 10:15:11;;;;;;;0.70;0.50;;;16.70;73.70;;;;;;4988662;28;20035;-64
2023/04/23 10:17:37;;;;;;;0.60;0.52;;;16.80;73.20;;;;;;4996378;28;20038;-62
2023/04/23 10:20:05;;;;;;;0.70;0.40;;;16.80;72.90;;;;;;4991969;28;20034;-64
2023/04/23 10:22:31;;;;;;;0.80;0.80;;;16.80;73.30;;;;;;4997615;28;20501;-65
2023/04/23 10:24:59;;;;;;;0.60;0.60;;;16.90;73.70;;;;;;4996814;28;20659;-65
2023/04/23 10:27:30;;;;;;;1.02;0.93;;;17.00;73.60;;;;;;4998131;28;20026;-64
2023/04/23 10:29:57;;;;;;;0.60;0.60;;;17.10;73.40;;;;;;4996198;28;20105;-64
2023/04/23 10:32:23;;;;;;;0.50;0.50;;;17.10;73.60;;;;;;4988669;28;20037;-64
2023/04/23 10:34:50;;;;;;;0.70;0.70;;;17.30;73.30;;;;;;4993461;28;20038;-64
2023/04/23 10:37:18;;;;;;;0.40;0.40;;;17.30;72.90;;;;;;4995593;28;20141;-64
2023/04/23 10:39:48;;;;;;;0.45;0.45;;;17.50;72.40;;;;;;4995561;28;20030;-61
2023/04/23 10:42:16;;;;;;;1.17;0.50;;;17.50;71.70;;;;;;4996342;28;20038;-64
2023/04/23 10:44:42;;;;;;;1.30;0.40;;;17.60;71.60;;;;;;4996219;28;20034;-64
2023/04/23 10:47:15;;;;;;;0.65;0.60;;;17.60;71.00;;;;;;4996828;28;20092;-64
2023/04/23 10:49:42;;;;;;;0.38;0.38;;;17.70;70.60;;;;;;4994916;28;20033;-64
2023/04/23 10:52:09;;;;;;;1.02;0.47;;;17.70;70.90;;;;;;4994835;28;20022;-64
2023/04/23 10:54:35;;;;;;;0.50;0.40;;;17.80;70.20;;;;;;4995105;28;20041;-64
2023/04/23 10:57:05;;;;;;;2.10;0.50;;;17.90;69.70;;;;;;4991430;28;20045;-65
2023/04/23 10:59:33;;;;;;;0.40;0.40;;;17.90;68.60;;;;;;4989571;28;20043;-62
2023/04/23 11:02:06;;;;;;;1.30;0.60;;;17.90;68.10;;;;;;4998518;28;20176;-64
2023/04/23 11:04:34;;;;;;;0.85;0.70;;;17.90;67.00;;;;;;4988225;28;20077;-62
2023/04/23 11:07:08;;;;;;;1.55;0.50;;;17.90;67.40;;;;;;4989800;28;20383;-62
2023/04/23 11:09:33;;;;;;;1.03;0.53;;;17.90;67.50;;;;;;4988504;28;20034;-65
2023/04/23 11:12:01;;;;;;;1.00;0.65;;;18.00;68.30;;;;;;4990039;28;20285;-64
2023/04/23 11:14:45;;;;;;;2.30;0.90;;;18.00;67.60;;;;;;4989640;28;20432;-64
2023/04/23 11:17:12;;;;;;;1.25;0.90;;;18.10;67.60;;;;;;4991506;28;20131;-64
2023/04/23 11:19:39;;;;;;;1.13;0.60;;;18.20;68.30;;;;;;4996987;28;20120;-62
2023/04/23 11:22:09;;;;;;;1.75;0.60;;;18.20;67.90;;;;;;4992845;28;20042;-62
2023/04/23 11:24:41;;;;;;;1.10;0.70;;;18.30;67.80;;;;;;4995100;28;20084;-62
2023/04/23 11:27:12;;;;;;;0.80;0.60;;;18.40;66.90;;;;;;4995780;28;20066;-62
2023/04/23 11:29:39;;;;;;;1.88;0.47;;;18.50;66.60;;;;;;4994418;28;20623;-64
2023/04/23 11:32:09;;;;;;;1.20;0.70;;;18.50;66.00;;;;;;4995626;28;20033;-62
2023/04/23 11:34:37;;;;;;;2.08;0.70;;;18.50;66.60;;;;;;4990318;28;20033;-62
2023/04/23 11:37:03;;;;;;;1.23;0.60;;;18.60;65.90;;;;;;4991690;28;20057;-65
2023/04/23 11:39:30;;;;;;;0.90;0.60;;;18.60;65.80;;;;;;4993578;28;20494;-64
2023/04/23 11:41:58;;;;;;;1.25;0.90;;;18.70;65.70;;;;;;4995701;28;20054;-62
2023/04/23 11:44:23;;;;;;;2.15;0.90;;;18.70;65.40;;;;;;4988046;28;20394;-62
2023/04/23 11:46:49;;;;;;;1.42;0.80;;;18.80;65.60;;;;;;4985111;28;20046;-62
2023/04/23 11:49:17;;;;;;;0.93;0.80;;;18.80;65.20;;;;;;4986604;28;20042;-62
2023/04/23 11:51:44;;;;;;;1.63;0.70;;;18.90;65.30;;;;;;4988711;28;20034;-64
2023/04/23 11:54:12;;;;;;;1.33;0.50;;;18.90;65.00;;;;;;4986431;28;20026;-62
2023/04/23 11:56:38;;;;;;;1.00;0.70;;;19.00;64.80;;;;;;4992330;28;20619;-62
2023/04/23 11:59:04;;;;;;;2.88;0.80;;;19.00;64.50;;;;;;4987555;28;20056;-61
2023/04/23 12:01:41;;;;;;;1.35;0.65;;;19.10;64.10;;;;;;4989994;28;20026;-62
2023/04/23 12:04:33;;;;;;;1.13;0.68;;;19.20;63.30;;;;;;4990362;28;20096;-62
2023/04/23 12:06:59;;;;;;;1.73;0.85;;;19.20;63.10;;;;;;5010734;28;20036;-62
2023/04/23 12:09:27;;;;;;;0.95;0.82;;;19.30;63.80;;;;;;5014131;28;20038;-64
2023/04/23 12:11:54;;;;;;;1.85;0.80;;;19.30;62.90;;;;;;5005054;28;20041;-62
2023/04/23 12:14:28;;;;;;;1.02;0.68;;;19.40;63.20;;;;;;5006762;28;20793;-62
2023/04/23 12:16:55;;;;;;;1.83;0.80;;;19.40;61.90;;;;;;4985788;28;20128;-62
2023/04/23 12:19:29;;;;;;;2.35;0.80;;;19.40;62.70;;;;;;4998278;28;20038;-63
2023/04/23 12:22:00;;;;;;;0.90;0.68;;;19.40;62.60;;;;;;5007231;28;20111;-62
2023/04/23 12:24:28;;;;;;;1.77;0.80;;;19.50;63.10;;;;;;5011150;28;20037;-63
2023/04/23 12:26:57;;;;;;;0.90;0.70;;;19.50;63.40;;;;;;5006190;28;20128;-62
2023/04/23 12:29:24;;;;;;;1.50;0.70;;;19.50;62.60;;;;;;5016113;28;20054;-62
2023/04/23 12:31:51;;;;;;;1.00;0.70;;;19.60;62.30;;;;;;5012621;28;20041;-64
2023/04/23 12:34:19;;;;;;;1.35;0.70;;;19.60;62.50;;;;;;5011080;28;20025;-62
2023/04/23 12:36:50;;;;;;;0.70;0.63;;;19.60;62.00;;;;;;5011868;28;20029;-62
2023/04/23 12:39:21;;;;;;;0.80;0.77;;;19.70;61.90;;;;;;5011921;28;20095;-62
2023/04/23 12:41:50;;;;;;;0.82;0.65;;;19.70;61.10;;;;;;5012456;28;20037;-62
2023/04/23 12:44:16;;;;;;;1.35;0.80;;;19.70;61.40;;;;;;5014297;28;20029;-65
2023/04/23 12:46:42;;;;;;;1.25;0.93;;;19.80;61.90;;;;;;5010938;28;20038;-63